createdAt,value
2022-10-13T00:02:06.767Z,19.38
2022-10-13T00:04:34.324Z,22.13
2022-10-13T00:07:00.612Z,19.23
2022-10-13T00:09:27.033Z,18.88
2022-10-13T00:11:58.343Z,19.90
2022-10-13T00:14:24.763Z,18.70
2022-10-13T00:16:51.096Z,23.17
2022-10-13T00:19:17.682Z,21.13
2022-10-13T00:21:43.996Z,18.85
2022-10-13T00:24:11.290Z,24.02
2022-10-13T00:26:37.703Z,23.52
2022-10-13T00:29:06.852Z,19.65
2022-10-13T00:31:33.194Z,15.48
2022-10-13T00:34:00.447Z,18.02
2022-10-13T00:36:27.008Z,21.75
2022-10-13T00:38:53.503Z,26.73
2022-10-13T00:41:20.380Z,22.38
2022-10-13T00:43:48.266Z,19.20
2022-10-13T00:46:15.129Z,17.23
2022-10-13T00:48:42.820Z,22.00
2022-10-13T00:51:10.199Z,20.75
2022-10-13T00:53:37.408Z,22.00
2022-10-13T00:56:04.904Z,16.33
2022-10-13T00:58:32.830Z,19.40
2022-10-13T01:00:59.735Z,22.85
2022-10-13T01:03:26.798Z,17.52
2022-10-13T01:05:55.514Z,19.88
2022-10-13T01:08:22.956Z,21.35
2022-10-13T01:10:55.559Z,21.77
2022-10-13T01:13:40.832Z,24.77
2022-10-13T01:16:14.095Z,20.98
2022-10-13T01:18:48.809Z,22.80
2022-10-13T01:21:35.107Z,19.40
2022-10-13T01:24:20.399Z,18.95
2022-10-13T01:26:59.219Z,22.23
2022-10-13T01:29:37.487Z,18.85
2022-10-13T01:32:11.643Z,23.92
2022-10-13T01:34:44.421Z,18.73
2022-10-13T01:37:28.067Z,19.42
2022-10-13T01:39:54.400Z,18.90
2022-10-13T01:42:34.269Z,17.02
2022-10-13T01:45:02.020Z,19.60
2022-10-13T01:47:30.011Z,21.80
2022-10-13T01:49:56.696Z,19.27
2022-10-13T01:52:25.432Z,20.30
2022-10-13T01:54:52.490Z,17.67
2022-10-13T01:57:27.830Z,24.60
2022-10-13T01:59:54.172Z,19.00
2022-10-13T02:02:26.091Z,21.48
2022-10-13T02:04:55.688Z,17.80
2022-10-13T02:07:28.289Z,17.50
2022-10-13T02:09:59.960Z,20.42
2022-10-13T02:12:44.802Z,19.05
2022-10-13T02:15:13.463Z,18.08
2022-10-13T02:17:40.151Z,19.67
2022-10-13T02:20:07.115Z,22.70
2022-10-13T02:22:38.230Z,24.05
2022-10-13T02:25:05.048Z,21.90
2022-10-13T02:27:31.443Z,17.27
2022-10-13T02:29:58.138Z,17.08
2022-10-13T02:32:29.068Z,22.50
2022-10-13T02:34:55.452Z,21.85
2022-10-13T02:37:21.927Z,20.65
2022-10-13T02:39:48.271Z,19.38
2022-10-13T02:42:16.413Z,30.35
2022-10-13T02:44:42.863Z,18.90
2022-10-13T02:47:09.391Z,20.38
2022-10-13T02:49:35.708Z,19.00
2022-10-13T02:52:02.113Z,18.35
2022-10-13T02:54:28.485Z,16.58
2022-10-13T02:56:54.781Z,20.02
2022-10-13T02:59:21.102Z,19.80
2022-10-13T03:01:47.472Z,21.42
2022-10-13T03:04:13.845Z,21.17
2022-10-13T03:06:40.160Z,18.67
2022-10-13T03:09:07.392Z,21.73
2022-10-13T03:11:35.101Z,24.40
2022-10-13T03:14:01.479Z,24.85
2022-10-13T03:16:27.959Z,20.40
2022-10-13T03:18:54.287Z,22.65
2022-10-13T03:21:20.562Z,19.75
2022-10-13T03:23:47.099Z,24.02
2022-10-13T03:26:13.409Z,21.88
2022-10-13T03:28:39.929Z,23.08
2022-10-13T03:31:07.493Z,22.80
2022-10-13T03:33:33.967Z,24.83
2022-10-13T03:36:01.660Z,22.40
2022-10-13T03:38:28.848Z,23.42
2022-10-13T03:40:55.158Z,21.48
2022-10-13T03:43:21.679Z,21.50
2022-10-13T03:45:54.977Z,23.20
2022-10-13T03:48:21.532Z,19.85
2022-10-13T03:50:47.825Z,17.13
2022-10-13T03:53:14.146Z,20.20
2022-10-13T03:55:41.757Z,18.70
2022-10-13T03:58:08.560Z,22.73
2022-10-13T04:00:35.822Z,21.70
2022-10-13T04:03:02.116Z,23.38
2022-10-13T04:05:28.386Z,26.67
2022-10-13T04:07:54.747Z,17.80
2022-10-13T04:10:26.812Z,25.63
2022-10-13T04:12:53.120Z,16.85
2022-10-13T04:15:19.614Z,19.23
2022-10-13T04:17:45.907Z,16.67
2022-10-13T04:20:12.215Z,22.13
2022-10-13T04:22:38.616Z,21.40
2022-10-13T04:25:05.552Z,22.70
2022-10-13T04:27:32.593Z,20.63
2022-10-13T04:29:58.917Z,22.70
2022-10-13T04:32:25.461Z,19.05
2022-10-13T04:34:52.847Z,23.50
2022-10-13T04:37:19.155Z,26.95
2022-10-13T04:39:45.465Z,21.08
2022-10-13T04:42:11.856Z,21.77
2022-10-13T04:44:38.315Z,21.13
2022-10-13T04:47:07.059Z,25.25
2022-10-13T04:49:33.380Z,26.05
2022-10-13T04:51:59.703Z,21.08
2022-10-13T04:54:26.089Z,23.17
2022-10-13T04:56:52.430Z,19.77
2022-10-13T04:59:18.752Z,24.40
2022-10-13T05:01:45.153Z,19.02
2022-10-13T05:04:13.068Z,18.55
2022-10-13T05:06:58.814Z,23.92
2022-10-13T05:09:27.264Z,23.13
2022-10-13T05:11:55.073Z,25.65
2022-10-13T05:14:21.926Z,24.10
2022-10-13T05:16:48.231Z,23.23
2022-10-13T05:19:15.241Z,24.58
2022-10-13T05:21:41.727Z,22.75
2022-10-13T05:24:13.256Z,29.45
2022-10-13T05:26:40.549Z,22.65
2022-10-13T05:29:06.831Z,26.60
2022-10-13T05:31:34.439Z,25.60
2022-10-13T05:34:01.023Z,23.05
2022-10-13T05:36:32.162Z,25.13
2022-10-13T05:38:59.894Z,34.28
2022-10-13T05:41:27.165Z,30.00
2022-10-13T05:43:55.405Z,28.88
2022-10-13T05:46:21.699Z,35.90
2022-10-13T05:48:48.010Z,25.38
2022-10-13T05:51:16.359Z,30.67
2022-10-13T05:53:49.597Z,28.10
2022-10-13T05:56:21.780Z,26.98
2022-10-13T05:58:50.485Z,22.77
2022-10-13T06:01:19.258Z,24.45
2022-10-13T06:03:46.355Z,29.40
2022-10-13T06:06:12.760Z,26.30
2022-10-13T06:08:39.224Z,25.08
2022-10-13T06:11:05.842Z,27.33
2022-10-13T06:13:33.715Z,31.00
2022-10-13T06:16:00.211Z,40.33
2022-10-13T06:18:26.484Z,29.77
2022-10-13T06:20:52.806Z,31.48
2022-10-13T06:23:19.347Z,31.83
2022-10-13T06:25:49.287Z,24.63
2022-10-13T06:28:16.797Z,29.25
2022-10-13T06:30:46.894Z,27.90
2022-10-13T06:33:14.467Z,31.08
2022-10-13T06:35:40.982Z,31.33
2022-10-13T06:38:11.747Z,34.60
2022-10-13T06:40:42.992Z,34.92
2022-10-13T06:43:09.650Z,30.52
2022-10-13T06:45:40.775Z,39.00
2022-10-13T06:48:07.327Z,28.83
2022-10-13T06:50:33.635Z,31.60
2022-10-13T06:53:00.000Z,34.15
2022-10-13T06:55:26.340Z,33.20
2022-10-13T06:57:52.728Z,32.38
2022-10-13T07:00:19.275Z,33.50
2022-10-13T07:02:49.327Z,35.33
2022-10-13T07:05:16.771Z,34.33
2022-10-13T07:07:43.279Z,34.25
2022-10-13T07:10:09.620Z,32.30
2022-10-13T07:12:35.898Z,40.85
2022-10-13T07:15:02.283Z,35.53
2022-10-13T07:17:28.800Z,33.65
2022-10-13T07:19:57.895Z,35.75
2022-10-13T07:22:24.615Z,39.17
2022-10-13T07:24:51.218Z,40.05
2022-10-13T07:27:19.145Z,42.72
2022-10-13T07:29:45.612Z,34.88
2022-10-13T07:32:11.941Z,36.05
2022-10-13T07:34:38.252Z,36.75
2022-10-13T07:37:04.988Z,36.78
2022-10-13T07:39:31.783Z,38.78
2022-10-13T07:41:58.195Z,35.42
2022-10-13T07:44:24.588Z,38.55
2022-10-13T07:46:51.104Z,38.92
2022-10-13T07:49:17.739Z,40.53
2022-10-13T07:51:44.318Z,40.03
2022-10-13T07:54:10.954Z,44.85
2022-10-13T07:56:37.452Z,42.55
2022-10-13T07:59:08.026Z,43.85
2022-10-13T08:01:34.392Z,40.17
2022-10-13T08:04:00.901Z,43.00
2022-10-13T08:06:27.310Z,42.60
2022-10-13T08:08:57.990Z,39.90
2022-10-13T08:11:24.270Z,39.92
2022-10-13T08:13:51.181Z,38.47
2022-10-13T08:16:20.740Z,37.90
2022-10-13T08:18:47.260Z,34.17
2022-10-13T08:24:02.077Z,32.33
2022-10-13T08:26:28.690Z,37.92
2022-10-13T08:29:16.556Z,35.40
2022-10-13T08:31:43.288Z,38.42
2022-10-13T08:34:10.576Z,39.45
2022-10-13T08:36:37.263Z,37.90
2022-10-13T08:39:03.743Z,34.28
2022-10-13T08:41:31.469Z,34.83
2022-10-13T08:47:06.858Z,29.70
2022-10-13T08:49:33.772Z,31.25
2022-10-13T08:52:03.076Z,31.27
2022-10-13T08:54:29.640Z,29.75
2022-10-13T08:56:56.009Z,28.83
2022-10-13T08:59:22.455Z,27.08
2022-10-13T09:01:52.727Z,28.98
2022-10-13T09:04:31.680Z,29.73
2022-10-13T09:07:12.115Z,30.00
2022-10-13T09:09:38.950Z,33.10
2022-10-13T09:12:05.404Z,33.78
2022-10-13T09:14:37.028Z,23.63
2022-10-13T09:17:29.725Z,26.88
2022-10-13T09:19:59.236Z,26.40
2022-10-13T09:22:35.696Z,28.58
2022-10-13T09:25:11.270Z,26.80
2022-10-13T09:27:58.113Z,29.33
2022-10-13T09:30:30.585Z,27.52
2022-10-13T09:33:12.083Z,27.40
2022-10-13T09:35:42.617Z,26.15
2022-10-13T09:38:19.927Z,26.75
2022-10-13T09:40:58.429Z,23.85
2022-10-13T09:43:31.820Z,23.70
2022-10-13T09:45:59.052Z,28.35
2022-10-13T09:48:27.031Z,24.35
2022-10-13T09:50:54.634Z,23.58
2022-10-13T09:53:40.465Z,25.90
2022-10-13T09:56:17.253Z,24.10
2022-10-13T09:58:50.885Z,21.23
2022-10-13T10:01:29.075Z,24.00
2022-10-13T10:03:57.033Z,24.17
2022-10-13T10:06:26.884Z,25.50
2022-10-13T10:09:15.716Z,18.40
2022-10-13T10:11:45.939Z,22.55
2022-10-13T10:14:19.753Z,22.07
2022-10-13T10:16:49.538Z,25.02
2022-10-13T10:19:21.192Z,25.40
2022-10-13T10:21:58.471Z,19.52
2022-10-13T10:24:37.712Z,20.83
2022-10-13T10:27:13.575Z,23.67
2022-10-13T10:29:46.296Z,22.48
2022-10-13T10:32:24.950Z,25.73
2022-10-13T10:34:59.932Z,22.98
2022-10-13T10:37:36.446Z,21.42
2022-10-13T10:40:12.962Z,20.33
2022-10-13T10:42:57.724Z,21.23
2022-10-13T10:45:29.991Z,16.38
2022-10-13T10:48:02.446Z,20.92
2022-10-13T10:50:29.833Z,22.25
2022-10-13T10:53:02.938Z,23.88
2022-10-13T10:55:35.424Z,19.48
2022-10-13T10:58:07.656Z,19.80
2022-10-13T11:00:40.059Z,15.75
2022-10-13T11:03:25.268Z,18.08
2022-10-13T11:05:58.555Z,15.00
2022-10-13T11:08:29.208Z,16.95
2022-10-13T11:11:14.240Z,18.10
2022-10-13T11:13:51.942Z,17.17
2022-10-13T11:16:24.498Z,20.98
2022-10-13T11:18:55.796Z,18.40
2022-10-13T11:21:47.138Z,16.13
2022-10-13T11:24:32.250Z,15.77
2022-10-13T11:27:07.985Z,19.13
2022-10-13T11:29:43.892Z,16.02
2022-10-13T11:32:25.619Z,20.83
2022-10-13T11:34:57.904Z,22.75
2022-10-13T11:37:25.924Z,17.05
2022-10-13T11:40:00.962Z,18.80
2022-10-13T11:42:34.642Z,21.58
2022-10-13T11:45:12.066Z,23.70
2022-10-13T11:48:01.746Z,20.35
2022-10-13T11:50:28.048Z,21.77
2022-10-13T11:53:00.091Z,23.60
2022-10-13T11:55:38.518Z,19.15
2022-10-13T11:58:14.165Z,17.98
2022-10-13T12:00:49.424Z,26.20
2022-10-13T12:03:23.593Z,21.70
2022-10-13T12:05:50.071Z,22.05
2022-10-13T12:08:17.567Z,22.20
2022-10-13T12:10:43.859Z,20.20
2022-10-13T12:13:20.697Z,23.58
2022-10-13T12:15:46.997Z,26.40
2022-10-13T12:18:19.601Z,24.65
2022-10-13T12:20:51.568Z,21.42
2022-10-13T12:23:17.999Z,21.95
2022-10-13T12:25:47.147Z,23.92
2022-10-13T12:28:19.022Z,26.25
2022-10-13T12:30:54.431Z,25.73
2022-10-13T12:35:47.043Z,23.08
2022-10-13T12:38:17.587Z,24.58
2022-10-13T12:40:43.908Z,28.80
2022-10-13T12:43:15.235Z,22.52
2022-10-13T12:45:42.811Z,26.73
2022-10-13T12:48:27.850Z,22.98
2022-10-13T12:50:54.209Z,23.25
2022-10-13T12:53:26.867Z,20.17
2022-10-13T12:56:00.533Z,24.58
2022-10-13T12:58:28.974Z,27.90
2022-10-13T13:00:57.250Z,21.05
2022-10-13T13:03:26.122Z,21.00
2022-10-13T13:06:06.675Z,25.08
2022-10-13T13:08:33.033Z,21.52
2022-10-13T13:11:01.134Z,19.98
2022-10-13T13:13:27.669Z,26.25
2022-10-13T13:15:54.388Z,20.10
2022-10-13T13:18:26.858Z,21.05
2022-10-13T13:20:53.785Z,15.88
2022-10-13T13:23:21.880Z,17.13
2022-10-13T13:25:59.056Z,19.00
2022-10-13T13:28:32.188Z,19.08
2022-10-13T13:31:03.174Z,20.48
2022-10-13T13:33:29.660Z,22.23
2022-10-13T13:35:58.454Z,21.60
2022-10-13T13:38:24.927Z,21.42
2022-10-13T13:40:51.321Z,16.98
2022-10-13T13:43:18.334Z,18.85
2022-10-13T13:45:44.685Z,17.40
2022-10-13T13:48:12.179Z,18.00
2022-10-13T13:50:38.685Z,17.60
2022-10-13T13:53:05.435Z,22.27
2022-10-13T13:55:32.036Z,19.75
2022-10-13T13:57:58.614Z,20.95
2022-10-13T14:00:24.929Z,22.42
2022-10-13T14:02:54.714Z,18.98
2022-10-13T14:05:20.995Z,16.80
2022-10-13T14:07:47.282Z,19.73
2022-10-13T14:10:13.556Z,19.60
2022-10-13T14:12:40.083Z,20.20
2022-10-13T14:15:06.792Z,19.23
2022-10-13T14:17:33.060Z,20.08
2022-10-13T14:19:59.917Z,25.15
2022-10-13T14:22:26.835Z,23.85
2022-10-13T14:24:53.401Z,17.85
2022-10-13T14:27:19.683Z,20.30
2022-10-13T14:29:46.018Z,26.05
2022-10-13T14:32:12.751Z,25.58
2022-10-13T14:34:39.177Z,23.58
2022-10-13T14:37:05.699Z,22.70
2022-10-13T14:39:32.546Z,23.73
2022-10-13T14:41:58.856Z,17.55
2022-10-13T14:44:25.163Z,18.05
2022-10-13T14:46:51.431Z,23.90
2022-10-13T14:49:17.775Z,21.77
2022-10-13T14:51:47.504Z,19.58
2022-10-13T14:54:15.670Z,18.90
2022-10-13T14:56:42.074Z,24.58
2022-10-13T14:59:09.740Z,22.92
2022-10-13T15:01:36.525Z,22.40
2022-10-13T15:04:03.054Z,20.42
2022-10-13T15:06:30.574Z,23.25
2022-10-13T15:08:57.298Z,24.55
2022-10-13T15:11:24.286Z,25.55
2022-10-13T15:13:50.718Z,21.70
2022-10-13T15:16:24.274Z,20.15
2022-10-13T15:18:50.752Z,22.55
2022-10-13T15:21:17.524Z,23.08
2022-10-13T15:23:43.940Z,21.17
2022-10-13T15:26:11.100Z,20.88
2022-10-13T15:28:39.213Z,20.95
2022-10-13T15:31:06.066Z,20.70
2022-10-13T15:33:33.088Z,26.77
2022-10-13T15:35:59.483Z,22.55
2022-10-13T15:38:26.100Z,21.35
2022-10-13T15:40:52.531Z,22.17
2022-10-13T15:43:18.865Z,21.23
2022-10-13T15:45:56.162Z,19.10
2022-10-13T15:48:22.894Z,18.05
2022-10-13T15:50:49.211Z,22.00
2022-10-13T15:53:15.516Z,25.92
2022-10-13T15:55:41.837Z,20.83
2022-10-13T15:58:12.804Z,23.10
2022-10-13T16:00:40.826Z,25.30
2022-10-13T16:03:07.344Z,25.35
2022-10-13T16:05:33.827Z,24.13
2022-10-13T16:08:00.262Z,24.52
2022-10-13T16:10:26.618Z,26.20
2022-10-13T16:12:52.968Z,22.73
2022-10-13T16:15:21.477Z,20.48
2022-10-13T16:17:48.023Z,24.85
2022-10-13T16:20:14.352Z,21.60
2022-10-13T16:22:41.160Z,21.20
2022-10-13T16:25:08.392Z,24.50
2022-10-13T16:27:34.722Z,26.17
2022-10-13T16:30:01.103Z,21.77
2022-10-13T16:32:28.863Z,25.92
2022-10-13T16:34:55.755Z,25.48
2022-10-13T16:37:22.233Z,20.65
2022-10-13T16:39:51.688Z,15.88
2022-10-13T16:42:18.357Z,16.45
2022-10-13T16:44:44.659Z,16.75
2022-10-13T16:47:15.944Z,19.25
2022-10-13T16:49:44.603Z,17.80
2022-10-13T16:52:11.021Z,17.35
2022-10-13T16:54:37.366Z,15.60
2022-10-13T16:57:03.747Z,15.70
2022-10-13T16:59:30.457Z,16.15
2022-10-13T17:01:57.839Z,15.80
2022-10-13T17:04:24.602Z,16.77
2022-10-13T17:06:50.930Z,16.85
2022-10-13T17:09:17.406Z,18.75
2022-10-13T17:11:44.762Z,16.70
2022-10-13T17:14:11.085Z,16.83
2022-10-13T17:16:37.448Z,17.75
2022-10-13T17:19:04.262Z,17.05
2022-10-13T17:21:35.436Z,16.23
2022-10-13T17:24:02.750Z,16.25
2022-10-13T17:26:29.024Z,18.60
2022-10-13T17:28:55.391Z,18.58
2022-10-13T17:31:22.666Z,17.63
2022-10-13T17:33:49.577Z,17.70
2022-10-13T17:36:15.833Z,17.42
2022-10-13T17:38:42.676Z,15.88
2022-10-13T17:41:09.826Z,14.63
2022-10-13T17:49:03.238Z,16.00
2022-10-13T17:51:29.773Z,15.40
2022-10-13T17:53:58.318Z,13.98
2022-10-13T17:56:24.696Z,15.23
2022-10-13T17:58:51.513Z,14.60
2022-10-13T18:01:19.646Z,15.65
2022-10-13T18:03:49.123Z,15.82
2022-10-13T18:06:15.723Z,16.25
2022-10-13T18:08:43.125Z,17.50
2022-10-13T18:11:15.011Z,13.98
2022-10-13T18:13:41.931Z,15.90
2022-10-13T18:16:14.740Z,14.00
2022-10-13T18:18:41.842Z,20.58
2022-10-13T18:21:09.327Z,14.05
2022-10-13T18:23:36.487Z,18.85
2022-10-13T18:26:03.996Z,23.95
2022-10-13T18:28:31.149Z,16.63
2022-10-13T18:31:05.077Z,14.95
2022-10-13T18:33:31.688Z,16.13
2022-10-13T18:35:58.432Z,17.55
2022-10-13T18:38:25.239Z,14.80
2022-10-13T18:40:52.211Z,17.75
2022-10-13T18:43:18.626Z,16.35
2022-10-13T18:45:44.960Z,17.83
2022-10-13T18:48:11.550Z,17.33
2022-10-13T18:50:38.610Z,17.52
2022-10-13T18:53:05.021Z,18.30
2022-10-13T18:55:31.889Z,15.77
2022-10-13T18:57:59.078Z,15.73
2022-10-13T19:00:25.498Z,16.67
2022-10-13T19:02:53.281Z,20.55
2022-10-13T19:05:19.589Z,16.25
2022-10-13T19:07:45.863Z,17.52
2022-10-13T19:10:12.143Z,23.77
2022-10-13T19:12:41.506Z,24.38
2022-10-13T19:15:08.158Z,31.45
2022-10-13T19:17:34.443Z,34.40
2022-10-13T19:20:00.738Z,35.75
2022-10-13T19:22:27.227Z,34.97
2022-10-13T19:24:53.663Z,35.05
2022-10-13T19:27:20.550Z,35.38
2022-10-13T19:29:47.271Z,36.00
2022-10-13T19:32:13.726Z,41.25
2022-10-13T19:34:40.267Z,41.67
2022-10-13T19:37:06.786Z,38.40
2022-10-13T19:39:34.350Z,41.70
2022-10-13T19:42:00.647Z,59.20
2022-10-13T19:44:27.224Z,62.65
2022-10-13T19:46:53.935Z,46.20
2022-10-13T19:49:21.747Z,39.10
2022-10-13T19:51:49.189Z,144.90
2022-10-13T19:54:16.267Z,58.60
2022-10-13T19:56:47.261Z,92.68
2022-10-13T19:59:14.309Z,106.55
2022-10-13T20:01:41.146Z,41.65
2022-10-13T20:04:12.291Z,67.18
2022-10-13T20:06:39.773Z,113.45
2022-10-13T20:09:06.776Z,172.05
2022-10-13T20:11:33.112Z,142.07
2022-10-13T20:13:59.486Z,675.63
2022-10-13T20:16:25.907Z,260.38
2022-10-13T20:18:55.249Z,292.95
2022-10-13T20:21:21.759Z,303.02
2022-10-13T20:23:49.456Z,604.60
2022-10-13T20:26:16.367Z,442.73
2022-10-13T20:28:43.891Z,419.67
2022-10-13T20:31:10.719Z,494.70
2022-10-13T20:33:37.131Z,294.52
2022-10-13T20:36:05.092Z,196.85
2022-10-13T20:38:32.331Z,219.73
2022-10-13T20:41:05.376Z,257.73
2022-10-13T20:43:32.260Z,90.68
2022-10-13T20:46:02.420Z,257.92
2022-10-13T20:48:51.235Z,214.80
2022-10-13T20:51:19.407Z,208.00
2022-10-13T20:53:46.092Z,187.45
2022-10-13T20:56:23.620Z,101.93
2022-10-13T20:58:50.264Z,173.05
2022-10-13T21:01:17.700Z,195.90
2022-10-13T21:03:44.295Z,186.38
2022-10-13T21:06:11.480Z,112.50
2022-10-13T21:08:37.808Z,167.07
2022-10-13T21:11:05.331Z,112.53
2022-10-13T21:13:31.676Z,32.40
2022-10-13T21:15:58.332Z,25.38
2022-10-13T21:18:24.856Z,17.33
2022-10-13T21:20:51.188Z,19.92
2022-10-13T21:23:17.573Z,20.17
2022-10-13T21:25:44.223Z,23.05
2022-10-13T21:28:10.699Z,20.13
2022-10-13T21:30:37.201Z,23.05
2022-10-13T21:33:03.902Z,21.55
2022-10-13T21:35:30.401Z,21.88
2022-10-13T21:37:56.746Z,21.17
2022-10-13T21:40:23.075Z,22.40
2022-10-13T21:42:49.428Z,23.23
2022-10-13T21:45:15.730Z,21.83
2022-10-13T21:47:42.007Z,13.40
2022-10-13T21:50:08.476Z,119.55
2022-10-13T21:52:35.545Z,157.70
2022-10-13T21:55:02.828Z,157.27
2022-10-13T21:57:29.508Z,27.50
2022-10-13T21:59:55.790Z,24.10
2022-10-13T22:02:22.143Z,22.50
2022-10-13T22:04:49.318Z,22.58
2022-10-13T22:07:15.642Z,20.75
2022-10-13T22:09:41.933Z,26.17
2022-10-13T22:12:09.127Z,22.85
2022-10-13T22:14:37.423Z,18.80
2022-10-13T22:17:03.854Z,15.73
2022-10-13T22:19:30.143Z,17.33
2022-10-13T22:21:56.459Z,16.05
2022-10-13T22:24:26.023Z,17.85
2022-10-13T22:26:52.343Z,17.83
2022-10-13T22:29:20.212Z,20.65
2022-10-13T22:31:46.815Z,28.55
2022-10-13T22:34:14.236Z,55.40
2022-10-13T22:36:44.454Z,47.63
2022-10-13T22:39:14.067Z,66.03
2022-10-13T22:41:40.482Z,94.53
2022-10-13T22:44:07.003Z,85.75
2022-10-13T22:46:34.617Z,99.55
2022-10-13T22:49:01.069Z,143.77
2022-10-13T22:51:28.198Z,130.15
2022-10-13T22:53:55.144Z,172.07
2022-10-13T22:56:22.811Z,169.68
2022-10-13T22:58:53.265Z,195.05
2022-10-13T23:01:19.683Z,135.18
2022-10-13T23:03:47.496Z,109.10
2022-10-13T23:06:14.579Z,179.48
2022-10-13T23:08:41.179Z,204.82
2022-10-13T23:11:07.487Z,122.93
2022-10-13T23:13:33.855Z,142.68
2022-10-13T23:16:00.944Z,182.77
2022-10-13T23:18:29.436Z,115.43
2022-10-13T23:20:57.092Z,102.90
2022-10-13T23:23:25.401Z,135.07
2022-10-13T23:25:51.719Z,93.30
2022-10-13T23:28:18.054Z,130.45
2022-10-13T23:30:44.348Z,67.97
2022-10-13T23:33:10.623Z,113.20
2022-10-13T23:35:37.490Z,165.35
2022-10-13T23:38:03.798Z,113.95
2022-10-13T23:40:34.265Z,167.52
2022-10-13T23:43:00.565Z,277.27
2022-10-13T23:45:26.939Z,293.52
2022-10-13T23:47:53.283Z,116.78
2022-10-13T23:50:19.789Z,191.55
2022-10-13T23:52:46.395Z,156.27
2022-10-13T23:55:13.126Z,263.08
2022-10-13T23:57:39.400Z,124.38
